Time;durP1;ratioP1;P1;durP2;ratioP2;P2;SDS_P1;SDS_P2;PMS_P1;PMS_P2;Temp;Humidity;BMP_temperature;BMP_pressure;BME280_temperature;BME280_humidity;BME280_pressure;Samples;Min_cycle;Max_cycle;Signal;HPM_P1;HPM_P2
2023/12/30 00:01:03;;;;;;;101.70;43.87;;;;;;;-141.97;nan;46158.53;4972488;28;20464;-86
2023/12/30 00:03:29;;;;;;;127.90;50.83;;;;;;;-141.97;nan;46419.84;4973039;28;20179;-84
2023/12/30 00:05:54;;;;;;;136.27;55.73;;;;;;;-141.97;nan;46039.44;4955675;28;20195;-86
2023/12/30 00:08:20;;;;;;;157.13;60.80;;;;;;;-141.97;nan;45972.19;4973205;28;20204;-85
2023/12/30 00:10:45;;;;;;;159.23;61.80;;;;;;;-141.97;nan;45968.34;4972839;28;20176;-85
2023/12/30 00:13:11;;;;;;;147.73;58.70;;;;;;;-141.97;nan;46304.56;4972817;28;20207;-85
2023/12/30 00:15:36;;;;;;;106.43;42.17;;;;;;;-141.97;nan;46148.94;4973676;28;20354;-86
2023/12/30 00:18:02;;;;;;;102.73;40.70;;;;;;;-141.97;nan;46097.06;4972591;28;20699;-85
2023/12/30 00:20:28;;;;;;;92.87;39.10;;;;;;;-141.97;nan;45981.78;4955362;28;20180;-85
2023/12/30 00:22:53;;;;;;;95.00;39.27;;;;;;;-141.97;nan;46058.63;4955266;28;20871;-84
2023/12/30 00:25:20;;;;;;;84.00;36.17;;;;;;;-141.97;nan;46160.47;4955701;28;20183;-85
2023/12/30 00:27:45;;;;;;;79.87;35.37;;;;;;;-141.97;nan;46035.59;4973648;28;20199;-84
2023/12/30 00:30:12;;;;;;;69.67;32.23;;;;;;;-141.97;nan;46008.69;4973539;28;20506;-84
2023/12/30 00:32:39;;;;;;;76.63;33.03;;;;;;;-141.97;nan;46158.53;4978762;28;20175;-84
2023/12/30 00:35:07;;;;;;;76.60;33.50;;;;;;;-141.97;nan;46123.97;4991259;28;20526;-86
2023/12/30 00:37:32;;;;;;;76.47;32.27;;;;;;;-141.97;nan;46473.66;4993870;28;20439;-84
2023/12/30 00:39:58;;;;;;;70.80;31.80;;;;;;;-141.97;nan;46139.34;4956261;28;20990;-83
2023/12/30 00:42:23;;;;;;;66.77;28.93;;;;;;;-141.97;nan;46423.69;4973224;28;20172;-84
2023/12/30 00:44:48;;;;;;;74.90;33.33;;;;;;;-141.97;nan;46293.03;4972708;28;20175;-84
2023/12/30 00:47:14;;;;;;;78.50;32.90;;;;;;;-141.97;nan;46012.53;4973209;28;20203;-86
2023/12/30 00:49:39;;;;;;;75.10;31.20;;;;;;;-141.97;nan;46346.84;4955305;28;20235;-85
2023/12/30 00:52:05;;;;;;;76.13;33.90;;;;;;;-141.97;nan;45883.81;4954839;28;20182;-84
2023/12/30 00:54:30;;;;;;;79.60;35.27;;;;;;;-141.97;nan;46423.69;4972157;28;20290;-84
2023/12/30 00:56:56;;;;;;;76.83;35.47;;;;;;;-141.97;nan;46556.28;4972228;28;20199;-85
2023/12/30 00:59:21;;;;;;;80.97;34.47;;;;;;;-141.97;nan;46367.97;4978438;28;20187;-85
2023/12/30 01:01:46;;;;;;;82.73;34.47;;;;;;;-141.97;nan;46465.97;4973877;28;20248;-84
2023/12/30 01:04:12;;;;;;;81.03;34.47;;;;;;;-141.97;nan;45935.69;4987512;28;20176;-85
2023/12/30 01:06:38;;;;;;;75.60;33.87;;;;;;;-141.97;nan;46460.19;4965747;28;20176;-84
2023/12/30 01:09:03;;;;;;;80.30;34.20;;;;;;;-141.97;nan;46519.75;4962617;28;20190;-84
2023/12/30 01:11:29;;;;;;;78.07;34.40;;;;;;;-141.97;nan;46058.63;4955497;28;20314;-83
2023/12/30 01:13:54;;;;;;;74.63;32.30;;;;;;;-141.97;nan;46454.44;4954780;28;20287;-84
2023/12/30 01:16:20;;;;;;;75.53;33.93;;;;;;;-141.97;nan;46010.63;4972796;28;20168;-84
2023/12/30 01:18:45;;;;;;;70.00;31.03;;;;;;;-141.97;nan;46160.47;4954531;28;20232;-84
2023/12/30 01:21:11;;;;;;;75.30;32.10;;;;;;;-141.97;nan;46156.63;4972267;28;20198;-84
2023/12/30 01:23:36;;;;;;;71.43;31.90;;;;;;;-141.97;nan;46083.63;4971822;28;20262;-84
2023/12/30 01:26:01;;;;;;;74.80;32.87;;;;;;;-141.97;nan;46500.56;4953794;28;20664;-84
2023/12/30 01:28:27;;;;;;;78.73;34.50;;;;;;;-141.97;nan;46099.00;4971038;28;20164;-85
2023/12/30 01:30:52;;;;;;;79.40;33.30;;;;;;;-141.97;nan;45951.06;4971412;28;20172;-83
2023/12/30 01:33:18;;;;;;;84.63;34.43;;;;;;;-141.97;nan;45906.88;4953796;28;20180;-85
2023/12/30 01:35:43;;;;;;;71.00;33.80;;;;;;;-141.97;nan;46004.84;4971840;28;20279;-84
2023/12/30 01:38:08;;;;;;;70.97;31.93;;;;;;;-141.97;nan;46020.22;4954154;28;20186;-84
2023/12/30 01:40:34;;;;;;;73.10;33.73;;;;;;;-141.97;nan;46385.25;4970875;28;20172;-83
2023/12/30 01:43:02;;;;;;;72.30;32.33;;;;;;;-141.97;nan;46223.88;4953366;28;20235;-84
2023/12/30 01:45:28;;;;;;;74.27;33.17;;;;;;;-141.97;nan;46269.97;4970927;28;20164;-84
2023/12/30 01:47:54;;;;;;;79.87;34.83;;;;;;;-141.97;nan;46442.91;4971084;28;20403;-84
2023/12/30 01:50:21;;;;;;;76.30;33.37;;;;;;;-141.97;nan;46596.63;4970877;28;20176;-84
2023/12/30 01:52:47;;;;;;;129.03;44.53;;;;;;;-141.97;nan;46006.78;4971370;28;20869;-84
2023/12/30 01:55:15;;;;;;;81.97;36.63;;;;;;;-141.97;nan;46462.13;4953373;28;20470;-84
2023/12/30 01:57:43;;;;;;;82.90;35.07;;;;;;;-141.97;nan;45964.50;4971028;28;20904;-85
2023/12/30 02:00:11;;;;;;;99.30;38.77;;;;;;;-141.97;nan;46093.22;4953558;28;20865;-85
2023/12/30 02:02:37;;;;;;;142.30;48.27;;;;;;;-141.97;nan;46558.19;4970904;28;20416;-85
2023/12/30 02:05:04;;;;;;;110.10;41.73;;;;;;;-141.97;nan;45922.25;4970752;28;20411;-84
2023/12/30 02:07:29;;;;;;;130.97;47.20;;;;;;;-141.97;nan;46125.88;4971111;28;20194;-85
2023/12/30 02:09:55;;;;;;;129.27;46.70;;;;;;;-141.97;nan;45908.78;4953289;28;20510;-85
2023/12/30 02:12:20;;;;;;;115.30;42.13;;;;;;;-141.97;nan;46012.53;4953586;28;20168;-84
2023/12/30 02:14:45;;;;;;;117.30;44.63;;;;;;;-141.97;nan;46131.66;4952949;28;20246;-85
2023/12/30 02:17:11;;;;;;;132.97;47.47;;;;;;;-141.97;nan;45962.59;4970503;28;20211;-85
2023/12/30 02:19:37;;;;;;;132.37;49.80;;;;;;;-141.97;nan;46047.13;4971811;28;20613;-85
2023/12/30 02:22:02;;;;;;;142.93;50.17;;;;;;;-141.97;nan;46369.88;4954142;28;20176;-86
2023/12/30 02:24:27;;;;;;;149.33;49.20;;;;;;;-141.97;nan;46296.88;4955653;28;20506;-86
2023/12/30 02:26:54;;;;;;;122.30;45.63;;;;;;;-141.97;nan;46008.69;4957888;28;20172;-84
2023/12/30 02:29:19;;;;;;;124.27;46.23;;;;;;;-141.97;nan;46016.38;4957535;28;20259;-85
2023/12/30 02:31:47;;;;;;;124.27;47.43;;;;;;;-141.97;nan;46104.75;4974707;28;20439;-85
2023/12/30 02:34:15;;;;;;;122.90;46.87;;;;;;;-141.97;nan;46456.34;4957161;28;20203;-85
2023/12/30 02:36:40;;;;;;;112.27;44.50;;;;;;;-141.97;nan;46122.03;4974669;28;20399;-84
2023/12/30 02:39:05;;;;;;;103.57;42.40;;;;;;;-141.97;nan;46172.00;4957838;28;20418;-83
2023/12/30 02:41:31;;;;;;;95.60;38.97;;;;;;;-141.97;nan;45889.56;4958484;28;20651;-85
2023/12/30 02:44:01;;;;;;;92.20;39.03;;;;;;;-141.97;nan;46177.75;4974853;28;20184;-85
2023/12/30 02:46:26;;;;;;;92.97;39.03;;;;;;;-141.97;nan;46022.13;4958250;28;20176;-85
2023/12/30 02:48:52;;;;;;;97.60;39.57;;;;;;;-141.97;nan;46485.19;4958127;28;20778;-83
2023/12/30 02:51:18;;;;;;;92.27;38.47;;;;;;;-141.97;nan;46523.59;4957892;28;20177;-86
2023/12/30 02:53:43;;;;;;;92.63;37.03;;;;;;;-141.97;nan;46168.16;4992213;28;20164;-85
2023/12/30 02:56:26;;;;;;;85.70;36.33;;;;;;;-141.97;nan;46158.53;4980932;28;20474;-87
2023/12/30 02:59:02;;;;;;;90.13;37.53;;;;;;;-141.97;nan;46435.22;4964183;28;20187;-86
2023/12/30 03:01:29;;;;;;;93.37;39.47;;;;;;;-141.97;nan;46156.63;4975262;28;20510;-85
2023/12/30 03:03:57;;;;;;;158.43;64.50;;;;;;;-141.97;nan;46175.84;4975210;28;20415;-85
2023/12/30 03:06:23;;;;;;;188.27;70.43;;;;;;;-141.97;nan;46097.06;4975466;28;20499;-84
2023/12/30 03:08:49;;;;;;;170.33;62.17;;;;;;;-141.97;nan;46166.22;4957513;28;20974;-85
2023/12/30 03:11:15;;;;;;;201.50;74.60;;;;;;;-141.97;nan;46093.22;4974868;28;20243;-85
2023/12/30 03:13:41;;;;;;;171.03;59.37;;;;;;;-141.97;nan;46598.53;4974202;28;20418;-85
2023/12/30 03:16:06;;;;;;;113.00;43.77;;;;;;;-141.97;nan;46172.00;4974627;28;20817;-83
2023/12/30 03:18:32;;;;;;;89.83;37.47;;;;;;;-141.97;nan;46465.97;4973733;28;20216;-82
2023/12/30 03:20:58;;;;;;;90.27;37.93;;;;;;;-141.97;nan;46615.84;4975374;28;20200;-82
2023/12/30 03:23:23;;;;;;;85.10;38.90;;;;;;;-141.97;nan;46193.13;4975331;28;20188;-84
2023/12/30 03:25:50;;;;;;;89.33;36.70;;;;;;;-141.97;nan;46173.91;4974712;28;20759;-83
2023/12/30 03:28:16;;;;;;;77.13;36.10;;;;;;;-141.97;nan;46208.50;4956999;28;20236;-84
2023/12/30 03:30:41;;;;;;;79.10;34.40;;;;;;;-141.97;nan;46602.38;4973913;28;20419;-83
2023/12/30 03:33:07;;;;;;;81.37;35.97;;;;;;;-141.97;nan;46327.63;4956707;28;20176;-83
2023/12/30 03:35:33;;;;;;;83.10;36.37;;;;;;;-141.97;nan;46172.00;4974575;28;20247;-83
2023/12/30 03:37:59;;;;;;;84.27;35.53;;;;;;;-141.97;nan;45974.09;4974277;28;20172;-84
2023/12/30 03:40:24;;;;;;;82.03;36.40;;;;;;;-141.97;nan;46031.75;4956337;28;20423;-84
2023/12/30 03:42:50;;;;;;;85.33;36.50;;;;;;;-141.97;nan;45960.66;4956321;28;20208;-84
2023/12/30 03:45:15;;;;;;;91.30;37.10;;;;;;;-141.97;nan;46181.59;4956094;28;20188;-84
2023/12/30 03:47:41;;;;;;;72.37;34.13;;;;;;;-141.97;nan;45964.50;4956507;28;20235;-84
2023/12/30 03:50:07;;;;;;;97.10;41.27;;;;;;;-141.97;nan;46425.63;4973542;28;20168;-85
2023/12/30 03:52:34;;;;;;;96.27;41.57;;;;;;;-141.97;nan;46554.34;4973173;28;20419;-85
2023/12/30 03:54:59;;;;;;;108.63;47.10;;;;;;;-141.97;nan;45981.78;4960656;28;20322;-84
2023/12/30 03:57:25;;;;;;;85.67;38.97;;;;;;;-141.97;nan;46181.59;4956728;28;20919;-84
2023/12/30 03:59:51;;;;;;;144.33;59.97;;;;;;;-141.97;nan;45997.16;4962512;28;20173;-85
2023/12/30 04:02:21;;;;;;;192.53;81.83;;;;;;;-141.97;nan;46489.03;4977458;28;20180;-84
2023/12/30 04:04:49;;;;;;;385.27;132.60;;;;;;;-141.97;nan;46202.72;4973730;28;20479;-84
2023/12/30 04:07:14;;;;;;;357.30;129.50;;;;;;;-141.97;nan;46108.59;4955138;28;20412;-86
2023/12/30 04:09:40;;;;;;;318.50;122.60;;;;;;;-141.97;nan;46414.09;4971884;28;20933;-85
2023/12/30 04:12:05;;;;;;;274.23;107.07;;;;;;;-141.97;nan;46400.63;4954666;28;20168;-86
2023/12/30 04:14:31;;;;;;;219.97;90.70;;;;;;;-141.97;nan;46104.75;4973116;28;20258;-85
2023/12/30 04:16:56;;;;;;;180.67;73.07;;;;;;;-141.97;nan;46385.25;4954518;28;20671;-85
2023/12/30 04:19:23;;;;;;;185.00;72.10;;;;;;;-141.97;nan;46006.78;4971803;28;20306;-85
2023/12/30 04:21:49;;;;;;;192.07;65.90;;;;;;;-141.97;nan;46108.59;4972014;28;20250;-85
2023/12/30 04:24:14;;;;;;;166.53;61.87;;;;;;;-141.97;nan;46504.38;4971959;28;20494;-85
2023/12/30 04:26:40;;;;;;;112.67;46.23;;;;;;;-141.97;nan;46506.31;4971874;28;20180;-85
2023/12/30 04:29:05;;;;;;;84.80;38.87;;;;;;;-141.97;nan;46039.44;4954503;28;20176;-84
2023/12/30 04:31:31;;;;;;;85.87;36.30;;;;;;;-141.97;nan;46396.78;4954354;28;20176;-84
2023/12/30 04:33:56;;;;;;;76.90;34.03;;;;;;;-141.97;nan;46089.38;4971936;28;20882;-84
2023/12/30 04:36:21;;;;;;;71.90;33.67;;;;;;;-141.97;nan;45985.63;4953891;28;20291;-84
2023/12/30 04:38:47;;;;;;;72.27;32.60;;;;;;;-141.97;nan;46166.22;4971915;28;20621;-83
2023/12/30 04:41:12;;;;;;;67.80;31.50;;;;;;;-141.97;nan;46433.28;4971957;28;20176;-85
2023/12/30 04:43:37;;;;;;;62.07;29.70;;;;;;;-141.97;nan;46008.69;4972146;28;20172;-84
2023/12/30 04:46:03;;;;;;;70.83;29.77;;;;;;;-141.97;nan;46054.81;4954501;28;20639;-85
2023/12/30 04:48:28;;;;;;;59.77;28.70;;;;;;;-141.97;nan;45970.25;4953927;28;20645;-85
2023/12/30 04:50:54;;;;;;;64.73;29.30;;;;;;;-141.97;nan;46456.34;4971778;28;20251;-85
2023/12/30 04:53:19;;;;;;;64.13;29.13;;;;;;;-141.97;nan;46535.13;4954891;28;20176;-85
2023/12/30 04:55:45;;;;;;;64.63;28.80;;;;;;;-141.97;nan;46558.19;4954262;28;20335;-83
2023/12/30 04:58:10;;;;;;;61.10;28.97;;;;;;;-141.97;nan;46523.59;4954741;28;20172;-85
2023/12/30 05:00:35;;;;;;;57.13;25.67;;;;;;;-141.97;nan;46590.84;4972040;28;20525;-85
2023/12/30 05:03:01;;;;;;;55.83;25.70;;;;;;;-141.97;nan;46477.50;4954358;28;20207;-87
2023/12/30 05:05:27;;;;;;;50.10;24.50;;;;;;;-141.97;nan;46056.72;4972540;28;20195;-85
2023/12/30 05:07:52;;;;;;;57.13;24.90;;;;;;;-141.97;nan;46054.81;4955077;28;20187;-84
2023/12/30 05:10:17;;;;;;;67.67;27.73;;;;;;;-141.97;nan;46200.81;4972060;28;20168;-84
2023/12/30 05:12:43;;;;;;;63.33;28.97;;;;;;;-141.97;nan;46193.13;4981497;28;20183;-85
2023/12/30 05:15:12;;;;;;;90.93;37.33;;;;;;;-141.97;nan;46024.06;4975229;28;20199;-84
2023/12/30 05:17:38;;;;;;;84.80;36.80;;;;;;;-141.97;nan;46448.66;4986696;28;20224;-84
2023/12/30 05:20:06;;;;;;;92.07;37.63;;;;;;;-141.97;nan;46195.06;4972582;28;20541;-85
2023/12/30 05:22:31;;;;;;;92.30;38.13;;;;;;;-141.97;nan;46196.97;4971638;28;20164;-84
2023/12/30 05:24:57;;;;;;;72.03;30.07;;;;;;;-141.97;nan;46196.97;4971338;28;20423;-85
2023/12/30 05:27:22;;;;;;;66.43;30.40;;;;;;;-141.97;nan;46037.50;4954295;28;20717;-85
2023/12/30 05:29:47;;;;;;;66.63;30.10;;;;;;;-141.97;nan;46529.38;4959490;28;20617;-85
2023/12/30 05:32:13;;;;;;;73.07;31.73;;;;;;;-141.97;nan;46079.78;4987671;28;20164;-86
2023/12/30 05:34:38;;;;;;;71.23;30.60;;;;;;;-141.97;nan;46562.03;4976257;28;20216;-84
2023/12/30 05:37:04;;;;;;;74.80;33.20;;;;;;;-141.97;nan;46431.38;4992203;28;20207;-84
2023/12/30 05:39:29;;;;;;;76.47;33.93;;;;;;;-141.97;nan;46083.63;4988662;28;20256;-85
2023/12/30 05:41:55;;;;;;;91.70;37.63;;;;;;;-141.97;nan;46031.75;4987987;28;20178;-84
2023/12/30 05:44:20;;;;;;;82.87;36.13;;;;;;;-141.97;nan;46191.22;4992598;28;20183;-85
2023/12/30 05:46:45;;;;;;;91.17;39.57;;;;;;;-141.97;nan;46106.66;4979558;28;20160;-84
2023/12/30 05:49:11;;;;;;;93.53;39.57;;;;;;;-141.97;nan;46062.47;4973145;28;20211;-84
2023/12/30 05:51:42;;;;;;;91.80;38.43;;;;;;;-141.97;nan;46177.75;4954265;28;20180;-84
2023/12/30 05:54:09;;;;;;;86.63;37.40;;;;;;;-141.97;nan;46085.53;4953509;28;20176;-84
2023/12/30 05:56:35;;;;;;;83.43;35.40;;;;;;;-141.97;nan;46181.59;4953272;28;20455;-83
2023/12/30 05:59:00;;;;;;;80.97;35.50;;;;;;;-141.97;nan;46047.13;4954515;28;20450;-86
2023/12/30 06:01:26;;;;;;;89.27;37.63;;;;;;;-141.97;nan;45931.84;4957543;28;20172;-86
2023/12/30 06:03:52;;;;;;;79.87;35.30;;;;;;;-141.97;nan;46439.06;4957253;28;20208;-86
2023/12/30 06:06:17;;;;;;;82.07;36.00;;;;;;;-141.97;nan;46446.75;4957329;28;20160;-85
2023/12/30 06:08:42;;;;;;;83.87;37.50;;;;;;;-141.97;nan;46271.91;4974915;28;20180;-84
2023/12/30 06:11:08;;;;;;;85.20;37.73;;;;;;;-141.97;nan;46394.88;4957363;28;20262;-85
2023/12/30 06:13:34;;;;;;;89.63;37.77;;;;;;;-141.97;nan;46158.53;4974358;28;20172;-87
2023/12/30 06:16:00;;;;;;;110.70;46.67;;;;;;;-141.97;nan;46049.03;4974646;28;20579;-87
2023/12/30 06:18:30;;;;;;;82.10;36.10;;;;;;;-141.97;nan;46529.38;4954506;28;20488;-86
2023/12/30 06:20:58;;;;;;;79.17;37.23;;;;;;;-141.97;nan;45989.47;4956561;29;20175;-87
2023/12/30 06:23:23;;;;;;;191.53;72.50;;;;;;;-141.97;nan;46519.75;4955529;28;20404;-87
2023/12/30 06:25:49;;;;;;;228.83;90.80;;;;;;;-141.97;nan;46081.69;4957785;28;20956;-87
2023/12/30 06:28:14;;;;;;;250.07;99.03;;;;;;;-141.97;nan;45843.47;4955435;28;20207;-85
2023/12/30 06:30:40;;;;;;;330.00;119.83;;;;;;;-141.97;nan;46423.69;4955977;28;20239;-87
2023/12/30 06:33:11;;;;;;;371.97;140.73;;;;;;;-141.97;nan;46095.16;4955674;28;20206;-87
2023/12/30 06:35:39;;;;;;;573.27;266.50;;;;;;;-141.97;nan;45787.75;4958209;29;20916;-87
2023/12/30 06:38:05;;;;;;;625.17;292.60;;;;;;;-141.97;nan;46066.31;4961029;28;20420;-88
2023/12/30 06:40:30;;;;;;;709.77;351.20;;;;;;;-141.97;nan;46366.06;4958962;29;20421;-86
2023/12/30 06:42:56;;;;;;;1059.10;524.10;;;;;;;-141.97;nan;46343.00;4956293;29;20219;-87
2023/12/30 06:45:21;;;;;;;506.20;210.37;;;;;;;-141.97;nan;45922.25;4958201;29;20188;-86
2023/12/30 06:47:46;;;;;;;368.43;141.33;;;;;;;-141.97;nan;45993.31;4955469;29;20173;-86
2023/12/30 06:50:12;;;;;;;337.77;138.77;;;;;;;-141.97;nan;45960.66;4962152;28;20164;-86
2023/12/30 06:52:38;;;;;;;317.07;125.67;;;;;;;-141.97;nan;46066.31;4964633;28;20602;-88
2023/12/30 06:55:04;;;;;;;300.13;117.27;;;;;;;-141.97;nan;46465.97;4963006;28;20555;-87
2023/12/30 06:57:29;;;;;;;333.23;114.20;;;;;;;-141.97;nan;46404.47;4964189;29;20257;-88
2023/12/30 06:59:55;;;;;;;242.37;94.37;;;;;;;-141.97;nan;46204.66;4959906;29;20173;-88
2023/12/30 07:02:21;;;;;;;386.87;134.77;;;;;;;-141.97;nan;46054.81;4957250;29;20267;-89
2023/12/30 07:04:46;;;;;;;444.57;165.27;;;;;;;-141.97;nan;46012.53;4955731;29;20178;-87
2023/12/30 07:07:12;;;;;;;474.23;192.83;;;;;;;-141.97;nan;46062.47;4946896;28;20185;-87
2023/12/30 07:09:39;;;;;;;505.60;216.20;;;;;;;-141.97;nan;46072.09;4934227;29;20681;-86
2023/12/30 07:12:04;;;;;;;442.57;176.60;;;;;;;-141.97;nan;46373.72;4936807;29;20256;-87
2023/12/30 07:14:34;;;;;;;387.47;143.77;;;;;;;-141.97;nan;45941.44;4934476;29;20526;-87
2023/12/30 07:17:00;;;;;;;283.30;116.03;;;;;;;-141.97;nan;46012.53;4935761;28;20166;-88
2023/12/30 07:19:26;;;;;;;115.30;52.47;;;;;;;-141.97;nan;45860.75;4956605;28;20450;-87
2023/12/30 07:21:52;;;;;;;147.83;55.93;;;;;;;-141.97;nan;46306.50;4974051;28;20433;-86
2023/12/30 07:24:18;;;;;;;262.73;83.07;;;;;;;-141.97;nan;46389.09;4974744;28;20415;-87
2023/12/30 07:26:44;;;;;;;121.77;53.67;;;;;;;-141.97;nan;45883.81;4956951;28;20420;-86
2023/12/30 07:29:10;;;;;;;125.47;58.37;;;;;;;-141.97;nan;46262.28;4958394;28;20172;-86
2023/12/30 07:31:35;;;;;;;164.20;72.73;;;;;;;-141.97;nan;46289.19;4988795;28;20168;-86
2023/12/30 07:34:01;;;;;;;199.00;87.40;;;;;;;-141.97;nan;45974.09;5068608;23;20231;-89
2023/12/30 07:36:27;;;;;;;194.20;92.73;;;;;;;-141.97;nan;45912.63;4990916;28;20215;-87
2023/12/30 07:38:53;;;;;;;331.87;149.30;;;;;;;-141.97;nan;45901.09;4995182;28;20187;-88
2023/12/30 07:41:18;;;;;;;308.53;134.47;;;;;;;-141.97;nan;46462.13;4977560;28;20258;-85
2023/12/30 07:43:43;;;;;;;257.60;102.63;;;;;;;-141.97;nan;45989.47;4978018;28;20518;-85
2023/12/30 07:46:09;;;;;;;209.23;90.00;;;;;;;-141.97;nan;46068.25;4981720;28;20257;-87
2023/12/30 07:48:35;;;;;;;227.20;104.70;;;;;;;-141.97;nan;46062.47;5011305;28;20174;-87
2023/12/30 07:51:01;;;;;;;107.10;52.03;;;;;;;-141.97;nan;46064.41;4996713;28;20171;-86
2023/12/30 07:53:26;;;;;;;447.47;171.13;;;;;;;-141.97;nan;45954.91;5017753;28;20197;-86
2023/12/30 07:55:51;;;;;;;261.27;117.60;;;;;;;-141.97;nan;46020.22;4996761;28;20283;-85
2023/12/30 07:58:17;;;;;;;273.57;127.73;;;;;;;-141.97;nan;46339.16;4996249;28;20198;-86
2023/12/30 08:00:42;;;;;;;156.80;72.90;;;;;;;-141.97;nan;46035.59;4997692;28;20693;-86
2023/12/30 08:03:08;;;;;;;88.90;45.13;;;;;;;-141.97;nan;45922.25;4998567;28;20625;-88
2023/12/30 08:05:34;;;;;;;84.00;41.93;;;;;;;-141.97;nan;45916.47;5012832;28;20716;-87
2023/12/30 08:07:59;;;;;;;106.10;47.00;;;;;;;-141.97;nan;45933.75;5013027;28;20494;-86
2023/12/30 08:10:25;;;;;;;72.47;35.30;;;;;;;-141.97;nan;46416.00;4995083;28;20250;-87
2023/12/30 08:12:51;;;;;;;70.57;33.40;;;;;;;-141.97;nan;45926.06;5014043;28;20163;-87
2023/12/30 08:15:16;;;;;;;71.60;35.87;;;;;;;-141.97;nan;45808.91;5014940;28;20704;-86
2023/12/30 08:17:43;;;;;;;84.17;39.80;;;;;;;-141.97;nan;45962.59;5016872;28;20285;-86
2023/12/30 08:20:09;;;;;;;84.60;39.23;;;;;;;-141.97;nan;45977.94;5015151;28;20805;-86
2023/12/30 08:22:34;;;;;;;72.17;36.97;;;;;;;-141.97;nan;46281.50;4993188;28;20536;-87
2023/12/30 08:25:00;;;;;;;105.70;52.20;;;;;;;-141.97;nan;46047.13;4995182;28;20266;-89
2023/12/30 08:27:25;;;;;;;114.30;55.67;;;;;;;-141.97;nan;46020.22;5012573;28;20177;-87
2023/12/30 08:29:51;;;;;;;51.83;28.43;;;;;;;-141.97;nan;45822.34;5011891;28;20174;-87
2023/12/30 08:32:16;;;;;;;54.70;29.77;;;;;;;-141.97;nan;46446.75;5013088;28;20167;-87
2023/12/30 08:34:42;;;;;;;84.47;39.63;;;;;;;-141.97;nan;45887.66;4994095;28;20249;-86
2023/12/30 08:37:09;;;;;;;67.83;35.83;;;;;;;-141.97;nan;45970.25;5012299;28;20179;-86
2023/12/30 08:39:37;;;;;;;60.30;31.50;;;;;;;-141.97;nan;46302.66;5012952;28;20159;-85
2023/12/30 08:42:05;;;;;;;67.27;35.37;;;;;;;-141.97;nan;46318.00;4994561;28;20179;-87
2023/12/30 08:44:30;;;;;;;49.97;27.40;;;;;;;-141.97;nan;46308.41;4993608;28;20183;-86
2023/12/30 08:46:56;;;;;;;62.10;32.43;;;;;;;-141.97;nan;45897.25;5013125;28;20156;-86
2023/12/30 08:49:21;;;;;;;65.70;33.63;;;;;;;-141.97;nan;45897.25;4995976;28;20175;-85
2023/12/30 08:51:47;;;;;;;51.80;30.10;;;;;;;-141.97;nan;45947.22;4975237;28;20182;-86
2023/12/30 08:54:12;;;;;;;97.60;45.93;;;;;;;-141.97;nan;46277.66;4975420;28;20251;-86
2023/12/30 08:56:38;;;;;;;73.93;38.73;;;;;;;-141.97;nan;45901.09;4973370;28;20187;-85
2023/12/30 08:59:03;;;;;;;50.30;26.83;;;;;;;-141.97;nan;45895.34;4991397;28;20164;-86
2023/12/30 09:01:30;;;;;;;69.23;38.20;;;;;;;-141.97;nan;46233.47;4975024;28;20187;-87
2023/12/30 09:03:55;;;;;;;63.57;35.87;;;;;;;-141.97;nan;45947.22;4973259;28;20183;-86
2023/12/30 09:06:21;;;;;;;64.97;36.57;;;;;;;-141.97;nan;45824.25;4974067;28;20176;-86
2023/12/30 09:08:46;;;;;;;50.50;27.87;;;;;;;-141.97;nan;46319.94;4991261;28;20251;-86
2023/12/30 09:11:19;;;;;;;84.33;43.00;;;;;;;-141.97;nan;45951.06;4973553;28;20207;-88
2023/12/30 09:13:45;;;;;;;84.40;40.17;;;;;;;-141.97;nan;45931.84;4991488;28;20174;-87
2023/12/30 09:16:11;;;;;;;74.40;37.83;;;;;;;-141.97;nan;45931.84;4991184;28;20195;-88
2023/12/30 09:18:36;;;;;;;67.27;36.43;;;;;;;-141.97;nan;46139.34;4990801;28;20291;-86
2023/12/30 09:21:01;;;;;;;58.93;32.07;;;;;;;-141.97;nan;45735.91;4991267;28;20221;-85
2023/12/30 09:23:27;;;;;;;72.63;35.13;;;;;;;-141.97;nan;46050.97;4976501;28;20225;-86
2023/12/30 09:25:52;;;;;;;54.33;29.10;;;;;;;-141.97;nan;46162.38;4974163;28;20261;-86
2023/12/30 09:28:17;;;;;;;54.83;29.50;;;;;;;-141.97;nan;46162.38;4991984;28;20522;-86
2023/12/30 09:30:43;;;;;;;54.30;29.57;;;;;;;-141.97;nan;46089.38;4991881;28;20290;-85
2023/12/30 09:33:08;;;;;;;48.77;27.00;;;;;;;-141.97;nan;45833.88;4975787;28;20316;-85
2023/12/30 09:35:34;;;;;;;41.17;23.33;;;;;;;-141.97;nan;46216.19;4978790;28;20286;-86
2023/12/30 09:37:59;;;;;;;38.63;21.87;;;;;;;-141.97;nan;45805.06;4978928;28;20175;-87
2023/12/30 09:40:26;;;;;;;51.87;27.50;;;;;;;-141.97;nan;45858.84;4996581;28;20198;-87
2023/12/30 09:42:53;;;;;;;42.17;24.50;;;;;;;-141.97;nan;46323.78;4981312;28;20171;-88
2023/12/30 09:45:20;;;;;;;42.70;24.73;;;;;;;-141.97;nan;45820.41;4984707;28;20211;-90
2023/12/30 09:47:47;;;;;;;41.33;23.53;;;;;;;-141.97;nan;45860.75;5018725;28;20160;-90
2023/12/30 09:50:13;;;;;;;55.70;29.53;;;;;;;-141.97;nan;45864.59;5002109;28;20170;-89
2023/12/30 09:52:38;;;;;;;76.63;42.70;;;;;;;-141.97;nan;45782.00;5019275;28;20207;-87
2023/12/30 09:55:04;;;;;;;64.67;34.83;;;;;;;-141.97;nan;45716.69;5012732;28;20254;-87
2023/12/30 09:57:30;;;;;;;92.53;50.17;;;;;;;-141.97;nan;45805.06;5011851;28;20191;-86
2023/12/30 09:59:56;;;;;;;135.90;71.53;;;;;;;-141.97;nan;45876.13;4994842;28;20691;-87
2023/12/30 10:02:22;;;;;;;157.03;80.30;;;;;;;-141.97;nan;45820.41;4989399;28;20179;-85
2023/12/30 10:04:49;;;;;;;70.63;39.20;;;;;;;-141.97;nan;45901.09;4985083;28;20270;-86
2023/12/30 10:07:15;;;;;;;74.67;40.40;;;;;;;-141.97;nan;45745.50;4984150;28;20171;-87
2023/12/30 10:09:41;;;;;;;72.17;37.83;;;;;;;-141.97;nan;45851.16;5002276;28;20210;-86
2023/12/30 10:12:09;;;;;;;62.20;34.27;;;;;;;-141.97;nan;45872.28;4978847;28;20194;-87
2023/12/30 10:14:34;;;;;;;52.23;29.70;;;;;;;-141.97;nan;45783.91;4980888;28;20195;-86
2023/12/30 10:17:06;;;;;;;44.00;26.93;;;;;;;-141.97;nan;45831.94;4982254;28;20179;-86
2023/12/30 10:19:31;;;;;;;41.03;24.43;;;;;;;-141.97;nan;46058.63;4999093;28;20246;-85
2023/12/30 10:21:58;;;;;;;61.27;30.03;;;;;;;-141.97;nan;45724.38;4998323;28;20199;-87
2023/12/30 10:24:24;;;;;;;36.83;19.93;;;;;;;-141.97;nan;45858.84;4982917;28;20258;-86
2023/12/30 10:26:49;;;;;;;32.07;18.40;;;;;;;-141.97;nan;45778.16;4984958;28;20176;-86
2023/12/30 10:29:15;;;;;;;42.70;22.10;;;;;;;-141.97;nan;45885.72;4996659;28;20166;-87
2023/12/30 10:31:42;;;;;;;41.43;21.00;;;;;;;-141.97;nan;45772.41;4997884;28;20549;-86
2023/12/30 10:34:07;;;;;;;38.90;21.33;;;;;;;-141.97;nan;45770.47;4979053;28;20238;-86
2023/12/30 10:36:33;;;;;;;44.73;26.03;;;;;;;-141.97;nan;45697.47;4993585;28;20278;-88
2023/12/30 10:39:00;;;;;;;40.20;23.77;;;;;;;-141.97;nan;46239.25;4995279;28;20201;-87
2023/12/30 10:41:26;;;;;;;44.13;26.83;;;;;;;-141.97;nan;45726.28;4976317;28;20163;-86
2023/12/30 10:43:52;;;;;;;49.20;28.03;;;;;;;-141.97;nan;46181.59;4994443;28;20253;-86
2023/12/30 10:46:19;;;;;;;45.53;27.53;;;;;;;-141.97;nan;45847.31;4993136;28;20167;-86
2023/12/30 10:48:55;;;;;;;68.00;33.43;;;;;;;-141.97;nan;45856.91;4994622;28;20152;-86
2023/12/30 10:51:26;;;;;;;32.83;18.53;;;;;;;-141.97;nan;45799.28;4995433;28;20168;-86
2023/12/30 10:54:03;;;;;;;30.87;18.90;;;;;;;-141.97;nan;46221.94;4994320;28;20170;-86
2023/12/30 10:56:32;;;;;;;38.83;21.60;;;;;;;-141.97;nan;45720.53;4993891;28;20217;-86
2023/12/30 10:59:05;;;;;;;36.83;21.60;;;;;;;-141.97;nan;45858.84;4994684;28;20655;-86
2023/12/30 11:01:33;;;;;;;34.73;20.80;;;;;;;-141.97;nan;45843.47;4977654;28;20171;-87
2023/12/30 11:04:00;;;;;;;33.37;19.73;;;;;;;-141.97;nan;45824.25;4976408;28;20164;-88
2023/12/30 11:06:44;;;;;;;39.93;22.50;;;;;;;-141.97;nan;45682.09;4976073;28;20152;-87
2023/12/30 11:09:11;;;;;;;42.40;23.37;;;;;;;-141.97;nan;45835.78;4993518;28;20298;-85